Twin Oaks, Oklahoma
Current Conditions -  °F | °C
As of 9:15 AM on Wednesday 26 Nov 2014 (Local Time) from KSLG Reporting Station
Broken Clouds Broken Clouds  
Wind Chill: 37°   Ceiling: 10000
Heat Index: 43°   Visibility: 10mi
Dew Point: 27°   Wind: 9mph
Humidity: 53%   Direction: 280°W
Pressure: 30.05"   Gusts: NA
Location:  36.21°N, 94.85°W
Report Text: KSLG 261515Z AUTO 28008KT 10SM SCT070 BKN100 06/M03 A3005 RMK AO1
Loading
Personal Weather Stations






























Interactive Weather Map New forecast layout! Learn more

10-Day Weather Forecast

Advertisements
Track Severe Weather on mobile